sensor_id;sensor_type;location;lat;lon;timestamp;pressure;altitude;pressure_sealevel;temperature;humidity
72110;BME280;59983;52.010;5.420;2023-04-24T00:00:44;99909.69;;;9.07;100.00
72110;BME280;59983;52.010;5.420;2023-04-24T00:03:11;99924.78;;;9.08;100.00
72110;BME280;59983;52.010;5.420;2023-04-24T00:05:39;99930.63;;;9.10;100.00
72110;BME280;59983;52.010;5.420;2023-04-24T00:08:06;99929.50;;;9.11;100.00
72110;BME280;59983;52.010;5.420;2023-04-24T00:10:33;99921.69;;;9.09;100.00
72110;BME280;59983;52.010;5.420;2023-04-24T00:12:59;99927.13;;;9.09;100.00
72110;BME280;59983;52.010;5.420;2023-04-24T00:15:26;99924.41;;;9.09;100.00
72110;BME280;59983;52.010;5.420;2023-04-24T00:17:52;99925.22;;;9.10;100.00
72110;BME280;59983;52.010;5.420;2023-04-24T00:20:19;99925.22;;;9.10;100.00
72110;BME280;59983;52.010;5.420;2023-04-24T00:22:46;99943.34;;;9.09;100.00
72110;BME280;59983;52.010;5.420;2023-04-24T00:25:13;99928.63;;;9.07;100.00
72110;BME280;59983;52.010;5.420;2023-04-24T00:27:39;99934.81;;;9.07;100.00
72110;BME280;59983;52.010;5.420;2023-04-24T00:30:06;99941.78;;;9.08;100.00
72110;BME280;59983;52.010;5.420;2023-04-24T00:32:33;99934.81;;;9.07;100.00
72110;BME280;59983;52.010;5.420;2023-04-24T00:34:59;99934.38;;;9.05;100.00
72110;BME280;59983;52.010;5.420;2023-04-24T00:37:26;99930.91;;;9.05;100.00
72110;BME280;59983;52.010;5.420;2023-04-24T00:39:52;99928.56;;;9.03;100.00
72110;BME280;59983;52.010;5.420;2023-04-24T00:42:19;99930.53;;;9.06;100.00
72110;BME280;59983;52.010;5.420;2023-04-24T00:44:46;99932.88;;;9.08;100.00
72110;BME280;59983;52.010;5.420;2023-04-24T00:47:13;99939.44;;;9.07;100.00
72110;BME280;59983;52.010;5.420;2023-04-24T00:49:40;99941.78;;;9.08;100.00
72110;BME280;59983;52.010;5.420;2023-04-24T00:52:07;99939.94;;;9.13;100.00
72110;BME280;59983;52.010;5.420;2023-04-24T00:54:35;99939.16;;;9.12;100.00
72110;BME280;59983;52.010;5.420;2023-04-24T00:57:05;99930.28;;;9.12;100.00
72110;BME280;59983;52.010;5.420;2023-04-24T00:59:32;99943.78;;;9.12;100.00
72110;BME280;59983;52.010;5.420;2023-04-24T01:01:59;99935.69;;;9.12;100.00
72110;BME280;59983;52.010;5.420;2023-04-24T01:04:26;99939.53;;;9.11;100.00
72110;BME280;59983;52.010;5.420;2023-04-24T01:06:54;99940.63;;;9.09;100.00
72110;BME280;59983;52.010;5.420;2023-04-24T01:09:23;99939.84;;;9.09;100.00
72110;BME280;59983;52.010;5.420;2023-04-24T01:11:50;99943.00;;;9.11;100.00
72110;BME280;59983;52.010;5.420;2023-04-24T01:14:17;99937.94;;;9.09;100.00
72110;BME280;59983;52.010;5.420;2023-04-24T01:16:43;99930.53;;;9.06;100.00
72110;BME280;59983;52.010;5.420;2023-04-24T01:19:11;99959.94;;;9.08;100.00
72110;BME280;59983;52.010;5.420;2023-04-24T01:21:38;99953.38;;;9.09;100.00
72110;BME280;59983;52.010;5.420;2023-04-24T01:24:06;99946.84;;;9.10;100.00
72110;BME280;59983;52.010;5.420;2023-04-24T01:26:33;99943.34;;;9.09;100.00
72110;BME280;59983;52.010;5.420;2023-04-24T01:28:59;99939.84;;;9.09;100.00
72110;BME280;59983;52.010;5.420;2023-04-24T01:31:26;99947.19;;;9.08;100.00
72110;BME280;59983;52.010;5.420;2023-04-24T01:33:53;99934.44;;;9.09;100.00
72110;BME280;59983;52.010;5.420;2023-04-24T01:36:21;99944.16;;;9.10;100.00
72110;BME280;59983;52.010;5.420;2023-04-24T01:38:49;99946.84;;;9.10;100.00
72110;BME280;59983;52.010;5.420;2023-04-24T01:41:16;99944.94;;;9.11;100.00
72110;BME280;59983;52.010;5.420;2023-04-24T01:43:43;99960.81;;;9.12;100.00
72110;BME280;59983;52.010;5.420;2023-04-24T01:46:09;99948.06;;;9.13;100.00
72110;BME280;59983;52.010;5.420;2023-04-24T01:48:36;99950.75;;;9.13;100.00
72110;BME280;59983;52.010;5.420;2023-04-24T01:51:02;99944.22;;;9.14;100.00
72110;BME280;59983;52.010;5.420;2023-04-24T01:53:29;99943.84;;;9.15;100.00
72110;BME280;59983;52.010;5.420;2023-04-24T01:55:55;99946.97;;;9.17;100.00
72110;BME280;59983;52.010;5.420;2023-04-24T01:58:22;99942.00;;;9.19;100.00
72110;BME280;59983;52.010;5.420;2023-04-24T02:00:49;99941.19;;;9.19;100.00
72110;BME280;59983;52.010;5.420;2023-04-24T02:03:15;99945.41;;;9.16;100.00
72110;BME280;59983;52.010;5.420;2023-04-24T02:05:44;99950.47;;;9.18;100.00
72110;BME280;59983;52.010;5.420;2023-04-24T02:08:11;99943.50;;;9.17;100.00
72110;BME280;59983;52.010;5.420;2023-04-24T02:10:38;99943.84;;;9.15;100.00
72110;BME280;59983;52.010;5.420;2023-04-24T02:13:04;99947.28;;;9.12;100.00
72110;BME280;59983;52.010;5.420;2023-04-24T02:15:31;99943.06;;;9.15;100.00
72110;BME280;59983;52.010;5.420;2023-04-24T02:17:57;99945.00;;;9.14;100.00
72110;BME280;59983;52.010;5.420;2023-04-24T02:20:24;99936.16;;;9.17;100.00
72110;BME280;59983;52.010;5.420;2023-04-24T02:22:50;99944.28;;;9.17;100.00
72110;BME280;59983;52.010;5.420;2023-04-24T02:25:17;99945.84;;;9.18;100.00
72110;BME280;59983;52.010;5.420;2023-04-24T02:27:43;99941.16;;;9.15;100.00
72110;BME280;59983;52.010;5.420;2023-04-24T02:30:10;99949.25;;;9.15;100.00
72110;BME280;59983;52.010;5.420;2023-04-24T02:32:37;99948.47;;;9.15;100.00
72110;BME280;59983;52.010;5.420;2023-04-24T02:35:03;99941.16;;;9.15;100.00
72110;BME280;59983;52.010;5.420;2023-04-24T02:37:30;99945.41;;;9.16;100.00
72110;BME280;59983;52.010;5.420;2023-04-24T02:39:56;99938.06;;;9.17;100.00
72110;BME280;59983;52.010;5.420;2023-04-24T02:42:23;99943.06;;;9.15;100.00
72110;BME280;59983;52.010;5.420;2023-04-24T02:44:49;99944.28;;;9.17;100.00
72110;BME280;59983;52.010;5.420;2023-04-24T02:47:17;99936.50;;;9.16;100.00
72110;BME280;59983;52.010;5.420;2023-04-24T02:49:44;99935.75;;;9.15;100.00
72110;BME280;59983;52.010;5.420;2023-04-24T02:52:10;99937.28;;;9.16;100.00
72110;BME280;59983;52.010;5.420;2023-04-24T02:54:37;99938.44;;;9.15;100.00
72110;BME280;59983;52.010;5.420;2023-04-24T02:57:03;99941.94;;;9.16;100.00
72110;BME280;59983;52.010;5.420;2023-04-24T02:59:30;99932.25;;;9.15;100.00
72110;BME280;59983;52.010;5.420;2023-04-24T03:01:56;99936.88;;;9.14;100.00
72110;BME280;59983;52.010;5.420;2023-04-24T03:04:23;99930.63;;;9.10;100.00
72110;BME280;59983;52.010;5.420;2023-04-24T03:06:49;99939.06;;;9.08;100.00
72110;BME280;59983;52.010;5.420;2023-04-24T03:09:19;99941.38;;;9.06;100.00
72110;BME280;59983;52.010;5.420;2023-04-24T03:11:45;99942.50;;;9.05;100.00
72110;BME280;59983;52.010;5.420;2023-04-24T03:14:12;99945.16;;;9.02;100.00
72110;BME280;59983;52.010;5.420;2023-04-24T03:16:38;99934.34;;;9.02;100.00
72110;BME280;59983;52.010;5.420;2023-04-24T03:19:05;99940.53;;;9.02;100.00
72110;BME280;59983;52.010;5.420;2023-04-24T03:21:31;99933.97;;;9.03;100.00
72110;BME280;59983;52.010;5.420;2023-04-24T03:23:58;99931.25;;;9.03;100.00
72110;BME280;59983;52.010;5.420;2023-04-24T03:26:24;99933.19;;;9.03;100.00
72110;BME280;59983;52.010;5.420;2023-04-24T03:28:51;99930.47;;;9.03;100.00
72110;BME280;59983;52.010;5.420;2023-04-24T03:31:17;99918.53;;;9.04;100.00
72110;BME280;59983;52.010;5.420;2023-04-24T03:33:45;99923.56;;;9.05;100.00
72110;BME280;59983;52.010;5.420;2023-04-24T03:36:11;99924.78;;;9.08;100.00
72110;BME280;59983;52.010;5.420;2023-04-24T03:38:38;99914.72;;;9.08;100.00
72110;BME280;59983;52.010;5.420;2023-04-24T03:41:05;99919.34;;;9.08;100.00
72110;BME280;59983;52.010;5.420;2023-04-24T03:43:31;99913.53;;;9.06;100.00
72110;BME280;59983;52.010;5.420;2023-04-24T03:45:59;99927.06;;;9.06;100.00
72110;BME280;59983;52.010;5.420;2023-04-24T03:48:26;99922.00;;;9.04;100.00
72110;BME280;59983;52.010;5.420;2023-04-24T03:50:52;99928.56;;;9.03;100.00
72110;BME280;59983;52.010;5.420;2023-04-24T03:53:19;99926.63;;;9.04;100.00
72110;BME280;59983;52.010;5.420;2023-04-24T03:55:46;99938.75;;;9.10;100.00
72110;BME280;59983;52.010;5.420;2023-04-24T03:58:12;99939.16;;;9.12;100.00
72110;BME280;59983;52.010;5.420;2023-04-24T04:00:42;99930.19;;;9.08;100.00
72110;BME280;59983;52.010;5.420;2023-04-24T04:03:10;99933.25;;;9.06;100.00
72110;BME280;59983;52.010;5.420;2023-04-24T04:05:37;99930.84;;;9.01;100.00
72110;BME280;59983;52.010;5.420;2023-04-24T04:08:04;99938.97;;;9.01;100.00
72110;BME280;59983;52.010;5.420;2023-04-24T04:10:30;99940.38;;;8.95;100.00
72110;BME280;59983;52.010;5.420;2023-04-24T04:12:57;99946.94;;;8.94;100.00
72110;BME280;59983;52.010;5.420;2023-04-24T04:15:24;99954.16;;;8.90;100.00
72110;BME280;59983;52.010;5.420;2023-04-24T04:17:50;99942.50;;;8.86;100.00
72110;BME280;59983;52.010;5.420;2023-04-24T04:20:17;99952.53;;;8.86;100.00
72110;BME280;59983;52.010;5.420;2023-04-24T04:22:43;99952.13;;;8.84;100.00
72110;BME280;59983;52.010;5.420;2023-04-24T04:25:10;99950.47;;;8.79;100.00
72110;BME280;59983;52.010;5.420;2023-04-24T04:27:37;99955.44;;;8.77;100.00
72110;BME280;59983;52.010;5.420;2023-04-24T04:30:05;99960.84;;;8.77;100.00
72110;BME280;59983;52.010;5.420;2023-04-24T04:32:32;99957.00;;;8.78;100.00
72110;BME280;59983;52.010;5.420;2023-04-24T04:35:00;99963.13;;;8.75;100.00
72110;BME280;59983;52.010;5.420;2023-04-24T04:37:33;99962.78;;;8.76;100.00
72110;BME280;59983;52.010;5.420;2023-04-24T04:40:00;99969.03;;;8.80;100.00
72110;BME280;59983;52.010;5.420;2023-04-24T04:42:27;99964.63;;;8.92;100.00
72110;BME280;59983;52.010;5.420;2023-04-24T04:44:55;99968.19;;;8.96;100.00
72110;BME280;59983;52.010;5.420;2023-04-24T04:47:24;99977.59;;;9.02;100.00
72110;BME280;59983;52.010;5.420;2023-04-24T04:49:50;99978.44;;;9.06;100.00
72110;BME280;59983;52.010;5.420;2023-04-24T04:52:20;99982.34;;;9.08;100.00
72110;BME280;59983;52.010;5.420;2023-04-24T04:54:46;99986.28;;;9.11;100.00
72110;BME280;59983;52.010;5.420;2023-04-24T04:57:13;99980.53;;;9.13;100.00
72110;BME280;59983;52.010;5.420;2023-04-24T04:59:39;99990.25;;;9.17;100.00
72110;BME280;59983;52.010;5.420;2023-04-24T05:02:08;99992.59;;;9.19;100.00
72110;BME280;59983;52.010;5.420;2023-04-24T05:04:35;99987.91;;;9.16;100.00
72110;BME280;59983;52.010;5.420;2023-04-24T05:07:02;99999.09;;;9.14;100.00
72110;BME280;59983;52.010;5.420;2023-04-24T05:09:29;99992.50;;;9.12;100.00
72110;BME280;59983;52.010;5.420;2023-04-24T05:11:55;100003.66;;;9.10;100.00
72110;BME280;59983;52.010;5.420;2023-04-24T05:14:22;100006.06;;;9.15;100.00
72110;BME280;59983;52.010;5.420;2023-04-24T05:16:48;100005.03;;;9.20;100.00
72110;BME280;59983;52.010;5.420;2023-04-24T05:19:15;100011.22;;;9.20;100.00
72110;BME280;59983;52.010;5.420;2023-04-24T05:21:42;100008.84;;;9.19;100.00
72110;BME280;59983;52.010;5.420;2023-04-24T05:24:08;100011.91;;;9.17;100.00
72110;BME280;59983;52.010;5.420;2023-04-24T05:26:35;100021.09;;;9.13;100.00
72110;BME280;59983;52.010;5.420;2023-04-24T05:29:02;100012.22;;;9.12;100.00
72110;BME280;59983;52.010;5.420;2023-04-24T05:31:28;100020.69;;;9.11;100.00
72110;BME280;59983;52.010;5.420;2023-04-24T05:33:55;100030.72;;;9.10;100.00
72110;BME280;59983;52.010;5.420;2023-04-24T05:36:22;100036.13;;;9.10;100.00
72110;BME280;59983;52.010;5.420;2023-04-24T05:38:48;100037.03;;;9.18;100.00
72110;BME280;59983;52.010;5.420;2023-04-24T05:41:15;100048.03;;;9.25;100.00
72110;BME280;59983;52.010;5.420;2023-04-24T05:43:41;100051.66;;;9.32;100.00
72110;BME280;59983;52.010;5.420;2023-04-24T05:46:08;100066.41;;;9.35;100.00
72110;BME280;59983;52.010;5.420;2023-04-24T05:48:34;100073.47;;;9.40;100.00
72110;BME280;59983;52.010;5.420;2023-04-24T05:51:01;100072.75;;;9.43;100.00
72110;BME280;59983;52.010;5.420;2023-04-24T05:53:27;100087.41;;;9.42;100.00
72110;BME280;59983;52.010;5.420;2023-04-24T05:55:54;100088.50;;;9.37;100.00
72110;BME280;59983;52.010;5.420;2023-04-24T05:58:21;100090.06;;;9.38;100.00
72110;BME280;59983;52.010;5.420;2023-04-24T06:00:47;100086.13;;;9.35;100.00
72110;BME280;59983;52.010;5.420;2023-04-24T06:03:14;100095.69;;;9.29;100.00
72110;BME280;59983;52.010;5.420;2023-04-24T06:05:41;100109.63;;;9.31;100.00
72110;BME280;59983;52.010;5.420;2023-04-24T06:08:08;100116.97;;;9.31;100.00
72110;BME280;59983;52.010;5.420;2023-04-24T06:10:34;100107.66;;;9.28;100.00
72110;BME280;59983;52.010;5.420;2023-04-24T06:13:01;100115.59;;;9.21;100.00
72110;BME280;59983;52.010;5.420;2023-04-24T06:15:30;100122.34;;;9.12;100.00
72110;BME280;59983;52.010;5.420;2023-04-24T06:17:57;100124.47;;;9.02;100.00
72110;BME280;59983;52.010;5.420;2023-04-24T06:20:24;100134.75;;;8.97;100.00
72110;BME280;59983;52.010;5.420;2023-04-24T06:22:51;100134.69;;;8.93;100.00
72110;BME280;59983;52.010;5.420;2023-04-24T06:25:18;100136.84;;;8.88;100.00
72110;BME280;59983;52.010;5.420;2023-04-24T06:27:45;100135.66;;;8.85;100.00
72110;BME280;59983;52.010;5.420;2023-04-24T06:30:12;100147.69;;;8.88;100.00
72110;BME280;59983;52.010;5.420;2023-04-24T06:32:39;100143.75;;;8.85;100.00
72110;BME280;59983;52.010;5.420;2023-04-24T06:35:06;100158.84;;;8.86;100.00
72110;BME280;59983;52.010;5.420;2023-04-24T06:37:34;100158.06;;;8.86;100.00
72110;BME280;59983;52.010;5.420;2023-04-24T06:40:01;100164.94;;;8.83;100.00
72110;BME280;59983;52.010;5.420;2023-04-24T06:42:27;100175.75;;;8.83;100.00
72110;BME280;59983;52.010;5.420;2023-04-24T06:44:54;100182.41;;;8.86;100.00
72110;BME280;59983;52.010;5.420;2023-04-24T06:47:20;100177.78;;;8.86;100.00
72110;BME280;59983;52.010;5.420;2023-04-24T06:49:47;100187.03;;;8.85;100.00
72110;BME280;59983;52.010;5.420;2023-04-24T06:52:13;100207.88;;;8.85;100.00
72110;BME280;59983;52.010;5.420;2023-04-24T06:54:41;100201.16;;;8.78;100.00
72110;BME280;59983;52.010;5.420;2023-04-24T06:57:08;100216.75;;;8.69;100.00
72110;BME280;59983;52.010;5.420;2023-04-24T06:59:35;100216.31;;;8.67;100.00
72110;BME280;59983;52.010;5.420;2023-04-24T07:02:01;100222.16;;;8.69;100.00
72110;BME280;59983;52.010;5.420;2023-04-24T07:04:29;100226.00;;;8.68;100.00
72110;BME280;59983;52.010;5.420;2023-04-24T07:06:56;100233.75;;;8.70;100.00
72110;BME280;59983;52.010;5.420;2023-04-24T07:09:25;100241.16;;;8.73;100.00
72110;BME280;59983;52.010;5.420;2023-04-24T07:11:53;100235.75;;;8.73;100.00
72110;BME280;59983;52.010;5.420;2023-04-24T07:14:20;100251.00;;;8.65;100.00
72110;BME280;59983;52.010;5.420;2023-04-24T07:16:46;100266.72;;;8.60;100.00
72110;BME280;59983;52.010;5.420;2023-04-24T07:19:13;100275.41;;;8.53;100.00
72110;BME280;59983;52.010;5.420;2023-04-24T07:21:40;100280.25;;;8.47;100.00
72110;BME280;59983;52.010;5.420;2023-04-24T07:24:07;100280.72;;;8.49;100.00
72110;BME280;59983;52.010;5.420;2023-04-24T07:26:38;100294.91;;;8.46;100.00
72110;BME280;59983;52.010;5.420;2023-04-24T07:29:06;100307.44;;;8.39;100.00
72110;BME280;59983;52.010;5.420;2023-04-24T07:31:33;100302.56;;;8.44;100.00
72110;BME280;59983;52.010;5.420;2023-04-24T07:34:00;100320.28;;;8.42;100.00
72110;BME280;59983;52.010;5.420;2023-04-24T07:36:27;100323.19;;;8.37;100.00
72110;BME280;59983;52.010;5.420;2023-04-24T07:38:54;100325.56;;;8.38;100.00
72110;BME280;59983;52.010;5.420;2023-04-24T07:41:22;100331.66;;;8.35;100.00
72110;BME280;59983;52.010;5.420;2023-04-24T07:43:50;100342.34;;;8.32;100.00
72110;BME280;59983;52.010;5.420;2023-04-24T07:46:17;100341.78;;;8.26;100.00
72110;BME280;59983;52.010;5.420;2023-04-24T07:48:43;100347.53;;;8.24;100.00
72110;BME280;59983;52.010;5.420;2023-04-24T07:51:10;100355.50;;;8.33;100.00
72110;BME280;59983;52.010;5.420;2023-04-24T07:53:39;100366.88;;;8.39;100.00
72110;BME280;59983;52.010;5.420;2023-04-24T07:56:06;100365.44;;;8.41;100.00
72110;BME280;59983;52.010;5.420;2023-04-24T07:58:33;100367.44;;;8.44;100.00
72110;BME280;59983;52.010;5.420;2023-04-24T08:01:00;100375.63;;;8.48;100.00
72110;BME280;59983;52.010;5.420;2023-04-24T08:03:27;100372.06;;;8.44;100.00
72110;BME280;59983;52.010;5.420;2023-04-24T08:05:54;100388.19;;;8.40;100.00
72110;BME280;59983;52.010;5.420;2023-04-24T08:08:21;100375.81;;;8.39;100.00
72110;BME280;59983;52.010;5.420;2023-04-24T08:10:49;100394.03;;;8.42;100.00
72110;BME280;59983;52.010;5.420;2023-04-24T08:13:16;100401.00;;;8.43;100.00
72110;BME280;59983;52.010;5.420;2023-04-24T08:15:42;100401.78;;;8.44;100.00
72110;BME280;59983;52.010;5.420;2023-04-24T08:18:09;100413.81;;;8.46;100.00
72110;BME280;59983;52.010;5.420;2023-04-24T08:20:38;100410.78;;;8.48;100.00
72110;BME280;59983;52.010;5.420;2023-04-24T08:23:05;100430.16;;;8.50;100.00
72110;BME280;59983;52.010;5.420;2023-04-24T08:25:31;100424.84;;;8.54;100.00
72110;BME280;59983;52.010;5.420;2023-04-24T08:27:58;100438.16;;;8.46;100.00
72110;BME280;59983;52.010;5.420;2023-04-24T08:30:24;100442.78;;;8.46;100.00
72110;BME280;59983;52.010;5.420;2023-04-24T08:32:51;100449.75;;;8.47;100.00
72110;BME280;59983;52.010;5.420;2023-04-24T08:35:18;100446.59;;;8.45;100.00
72110;BME280;59983;52.010;5.420;2023-04-24T08:37:44;100453.91;;;8.44;100.00
72110;BME280;59983;52.010;5.420;2023-04-24T08:40:14;100457.53;;;8.48;100.00
72110;BME280;59983;52.010;5.420;2023-04-24T08:42:42;100477.25;;;8.49;100.00
72110;BME280;59983;52.010;5.420;2023-04-24T08:45:11;100477.47;;;8.44;100.00
72110;BME280;59983;52.010;5.420;2023-04-24T08:47:40;100479.81;;;8.33;100.00
72110;BME280;59983;52.010;5.420;2023-04-24T08:50:08;100486.13;;;8.37;100.00
72110;BME280;59983;52.010;5.420;2023-04-24T08:52:35;100485.34;;;8.37;100.00
72110;BME280;59983;52.010;5.420;2023-04-24T08:55:02;100496.28;;;8.40;100.00
72110;BME280;59983;52.010;5.420;2023-04-24T08:57:29;100503.34;;;8.45;100.00
72110;BME280;59983;52.010;5.420;2023-04-24T08:59:57;100510.13;;;8.51;100.00
72110;BME280;59983;52.010;5.420;2023-04-24T09:02:25;100511.34;;;8.54;100.00
72110;BME280;59983;52.010;5.420;2023-04-24T09:04:52;100516.28;;;8.64;100.00
72110;BME280;59983;52.010;5.420;2023-04-24T09:07:19;100523.06;;;8.70;100.00
72110;BME280;59983;52.010;5.420;2023-04-24T09:09:50;100521.84;;;8.67;100.00
72110;BME280;59983;52.010;5.420;2023-04-24T09:12:18;100526.31;;;8.63;100.00
72110;BME280;59983;52.010;5.420;2023-04-24T09:14:45;100527.44;;;8.62;100.00
72110;BME280;59983;52.010;5.420;2023-04-24T09:17:12;100542.66;;;8.67;100.00
72110;BME280;59983;52.010;5.420;2023-04-24T09:19:39;100535.00;;;8.69;100.00
72110;BME280;59983;52.010;5.420;2023-04-24T09:22:10;100537.13;;;8.63;100.00
72110;BME280;59983;52.010;5.420;2023-04-24T09:24:38;100555.03;;;8.56;100.00
72110;BME280;59983;52.010;5.420;2023-04-24T09:27:04;100551.34;;;8.60;100.00
72110;BME280;59983;52.010;5.420;2023-04-24T09:29:31;100552.34;;;8.56;100.00
72110;BME280;59983;52.010;5.420;2023-04-24T09:31:59;100571.50;;;8.50;100.00
72110;BME280;59983;52.010;5.420;2023-04-24T09:34:26;100577.25;;;8.49;100.00
72110;BME280;59983;52.010;5.420;2023-04-24T09:36:53;100566.66;;;8.56;100.00
72110;BME280;59983;52.010;5.420;2023-04-24T09:39:20;100568.78;;;8.63;100.00
72110;BME280;59983;52.010;5.420;2023-04-24T09:41:55;100576.44;;;8.73;100.00
72110;BME280;59983;52.010;5.420;2023-04-24T09:44:26;100569.78;;;8.83;100.00
72110;BME280;59983;52.010;5.420;2023-04-24T09:46:58;100575.00;;;8.88;100.00
72110;BME280;59983;52.010;5.420;2023-04-24T09:49:30;100581.19;;;8.88;100.00
72110;BME280;59983;52.010;5.420;2023-04-24T09:52:09;100586.69;;;9.04;100.00
72110;BME280;59983;52.010;5.420;2023-04-24T09:54:37;100593.59;;;9.01;100.00
72110;BME280;59983;52.010;5.420;2023-04-24T09:57:06;100598.78;;;8.94;100.00
72110;BME280;59983;52.010;5.420;2023-04-24T09:59:33;100607.88;;;8.90;100.00
72110;BME280;59983;52.010;5.420;2023-04-24T10:02:02;100604.06;;;8.91;100.00
72110;BME280;59983;52.010;5.420;2023-04-24T10:04:29;100602.59;;;8.93;100.00
72110;BME280;59983;52.010;5.420;2023-04-24T10:06:57;100610.47;;;8.98;100.00
72110;BME280;59983;52.010;5.420;2023-04-24T10:09:25;100605.97;;;9.02;100.00
72110;BME280;59983;52.010;5.420;2023-04-24T10:11:54;100618.59;;;9.11;100.00
72110;BME280;59983;52.010;5.420;2023-04-24T10:14:22;100621.50;;;9.18;100.00
72110;BME280;59983;52.010;5.420;2023-04-24T10:16:52;100618.47;;;9.19;100.00
72110;BME280;59983;52.010;5.420;2023-04-24T10:19:19;100628.16;;;9.08;100.00
72110;BME280;59983;52.010;5.420;2023-04-24T10:21:46;100632.00;;;8.95;100.00
72110;BME280;59983;52.010;5.420;2023-04-24T10:24:17;100638.56;;;8.94;100.00
72110;BME280;59983;52.010;5.420;2023-04-24T10:26:45;100635.38;;;8.92;100.00
72110;BME280;59983;52.010;5.420;2023-04-24T10:29:16;100658.38;;;8.86;100.00
72110;BME280;59983;52.010;5.420;2023-04-24T10:31:42;100647.34;;;8.78;100.00
72110;BME280;59983;52.010;5.420;2023-04-24T10:34:12;100648.66;;;8.72;100.00
72110;BME280;59983;52.010;5.420;2023-04-24T10:36:44;100653.63;;;8.70;100.00
72110;BME280;59983;52.010;5.420;2023-04-24T10:39:13;100655.22;;;8.71;100.00
72110;BME280;59983;52.010;5.420;2023-04-24T10:41:41;100663.66;;;8.82;100.00
72110;BME280;59983;52.010;5.420;2023-04-24T10:46:37;100671.66;;;8.91;100.00
72110;BME280;59983;52.010;5.420;2023-04-24T10:49:07;100668.66;;;8.92;100.00
72110;BME280;59983;52.010;5.420;2023-04-24T10:54:27;100666.94;;;9.00;100.00
72110;BME280;59983;52.010;5.420;2023-04-24T10:59:48;100688.47;;;8.96;100.00
72110;BME280;59983;52.010;5.420;2023-04-24T11:02:16;100688.69;;;8.91;100.00
72110;BME280;59983;52.010;5.420;2023-04-24T11:04:43;100681.03;;;9.05;100.00
72110;BME280;59983;52.010;5.420;2023-04-24T11:07:10;100688.81;;;9.31;100.00
72110;BME280;59983;52.010;5.420;2023-04-24T11:09:37;100689.13;;;9.54;100.00
72110;BME280;59983;52.010;5.420;2023-04-24T11:12:08;100693.81;;;9.70;100.00
72110;BME280;59983;52.010;5.420;2023-04-24T11:17:35;100688.53;;;10.01;100.00
72110;BME280;59983;52.010;5.420;2023-04-24T11:20:09;100691.56;;;10.12;100.00
72110;BME280;59983;52.010;5.420;2023-04-24T11:22:55;100689.22;;;9.98;100.00
72110;BME280;59983;52.010;5.420;2023-04-24T11:25:30;100700.25;;;9.77;98.71
72110;BME280;59983;52.010;5.420;2023-04-24T11:28:05;100697.25;;;9.54;100.00
72110;BME280;59983;52.010;5.420;2023-04-24T11:30:32;100704.03;;;9.48;100.00
72110;BME280;59983;52.010;5.420;2023-04-24T11:33:04;100715.06;;;9.43;100.00
72110;BME280;59983;52.010;5.420;2023-04-24T11:35:36;100721.38;;;9.35;100.00
72110;BME280;59983;52.010;5.420;2023-04-24T11:38:06;100718.81;;;9.26;100.00
72110;BME280;59983;52.010;5.420;2023-04-24T11:40:36;100720.72;;;9.26;100.00
72110;BME280;59983;52.010;5.420;2023-04-24T11:43:04;100721.19;;;9.28;100.00
72110;BME280;59983;52.010;5.420;2023-04-24T11:45:33;100731.66;;;9.17;100.00
72110;BME280;59983;52.010;5.420;2023-04-24T11:47:59;100741.47;;;9.09;100.00
72110;BME280;59983;52.010;5.420;2023-04-24T11:50:26;100746.88;;;8.97;100.00
72110;BME280;59983;52.010;5.420;2023-04-24T11:52:54;100748.00;;;8.96;100.00
72110;BME280;59983;52.010;5.420;2023-04-24T11:57:50;100745.66;;;9.31;100.00
72110;BME280;59983;52.010;5.420;2023-04-24T12:00:19;100747.22;;;9.57;100.00
72110;BME280;59983;52.010;5.420;2023-04-24T12:02:47;100756.56;;;9.72;100.00
72110;BME280;59983;52.010;5.420;2023-04-24T12:05:24;100759.47;;;9.79;100.00
72110;BME280;59983;52.010;5.420;2023-04-24T12:07:51;100757.00;;;9.86;98.82
72110;BME280;59983;52.010;5.420;2023-04-24T12:10:25;100764.44;;;9.89;100.00
72110;BME280;59983;52.010;5.420;2023-04-24T12:12:56;100778.09;;;9.80;95.24
72110;BME280;59983;52.010;5.420;2023-04-24T12:15:24;100773.84;;;9.67;94.67
72110;BME280;59983;52.010;5.420;2023-04-24T12:17:52;100772.25;;;9.66;97.05
72110;BME280;59983;52.010;5.420;2023-04-24T12:20:24;100780.50;;;9.70;96.96
72110;BME280;59983;52.010;5.420;2023-04-24T12:22:53;100775.41;;;9.68;98.37
72110;BME280;59983;52.010;5.420;2023-04-24T12:25:31;100776.88;;;9.78;100.00
72110;BME280;59983;52.010;5.420;2023-04-24T12:30:31;100783.88;;;9.91;99.56
72110;BME280;59983;52.010;5.420;2023-04-24T12:32:59;100792.44;;;9.93;100.00
72110;BME280;59983;52.010;5.420;2023-04-24T12:35:28;100799.66;;;9.89;100.00
72110;BME280;59983;52.010;5.420;2023-04-24T12:37:55;100793.69;;;9.83;100.00
72110;BME280;59983;52.010;5.420;2023-04-24T12:40:25;100810.47;;;9.89;97.78
72110;BME280;59983;52.010;5.420;2023-04-24T12:42:51;100807.78;;;9.89;100.00
72110;BME280;59983;52.010;5.420;2023-04-24T12:45:18;100811.06;;;9.82;95.97
72110;BME280;59983;52.010;5.420;2023-04-24T12:47:45;100806.22;;;9.76;96.05
72110;BME280;59983;52.010;5.420;2023-04-24T12:50:14;100806.13;;;9.72;95.90
72110;BME280;59983;52.010;5.420;2023-04-24T12:52:42;100811.63;;;9.76;95.77
72110;BME280;59983;52.010;5.420;2023-04-24T12:55:09;100802.47;;;9.80;96.31
72110;BME280;59983;52.010;5.420;2023-04-24T12:57:37;100798.97;;;9.80;95.31
72110;BME280;59983;52.010;5.420;2023-04-24T13:00:07;100809.72;;;9.76;94.45
72110;BME280;59983;52.010;5.420;2023-04-24T13:02:35;100812.53;;;9.80;92.30
72110;BME280;59983;52.010;5.420;2023-04-24T13:05:02;100822.69;;;9.83;94.12
72110;BME280;59983;52.010;5.420;2023-04-24T13:07:29;100820.53;;;9.88;95.62
72110;BME280;59983;52.010;5.420;2023-04-24T13:09:56;100824.38;;;10.00;93.32
72110;BME280;59983;52.010;5.420;2023-04-24T13:12:24;100818.72;;;10.05;93.39